Time;durP1;ratioP1;P1;durP2;ratioP2;P2;SDS_P1;SDS_P2;PMS_P1;PMS_P2;Temp;Humidity;BMP_temperature;BMP_pressure;BME280_temperature;BME280_humidity;BME280_pressure;Samples;Min_cycle;Max_cycle;Signal;HPM_P1;HPM_P2
2024/02/15 03:05:14;;;;;;;13.27;12.40;;;7.60;99.90;;;;;;4080059;23;20228;-78
2024/02/15 03:29:11;;;;;;;14.20;13.30;;;7.00;99.90;;;;;;5132039;23;20225;-76
2024/02/15 03:31:38;;;;;;;13.77;12.77;;;7.00;99.90;;;;;;4894308;29;20205;-76
2024/02/15 03:34:04;;;;;;;13.60;12.80;;;7.00;99.90;;;;;;4881852;29;20228;-77
2024/02/15 03:36:31;;;;;;;14.00;13.20;;;7.00;99.90;;;;;;4870719;29;20703;-76
2024/02/15 03:38:58;;;;;;;13.60;12.80;;;7.00;99.90;;;;;;4880998;29;20217;-76
2024/02/15 03:41:30;;;;;;;13.90;13.10;;;7.00;99.90;;;;;;4874708;29;20209;-81
2024/02/15 03:43:59;;;;;;;13.47;12.53;;;7.00;99.90;;;;;;4880883;29;20204;-76
2024/02/15 03:46:27;;;;;;;13.50;12.77;;;6.90;99.90;;;;;;4881627;29;20229;-76
2024/02/15 03:48:56;;;;;;;13.70;12.90;;;6.90;99.90;;;;;;4876776;29;20221;-76
2024/02/15 03:51:24;;;;;;;13.37;12.60;;;7.00;99.90;;;;;;4878833;29;20238;-79
2024/02/15 03:53:51;;;;;;;14.40;13.50;;;7.00;99.90;;;;;;4896880;29;20238;-79
2024/02/15 03:56:19;;;;;;;13.90;13.10;;;7.00;99.90;;;;;;4874250;29;20241;-80
2024/02/15 03:58:46;;;;;;;14.30;13.50;;;7.10;99.90;;;;;;4881872;29;20234;-80
2024/02/15 04:01:15;;;;;;;13.73;12.93;;;7.10;99.90;;;;;;4878889;29;20212;-79
2024/02/15 04:03:43;;;;;;;13.80;13.00;;;7.10;99.90;;;;;;4870969;29;20846;-79
2024/02/15 04:06:11;;;;;;;13.50;12.80;;;7.10;99.90;;;;;;4880347;29;20201;-78
2024/02/15 04:08:38;;;;;;;13.60;12.80;;;7.10;99.90;;;;;;4878980;29;20285;-79
2024/02/15 04:11:07;;;;;;;13.70;12.90;;;7.10;99.90;;;;;;4875975;29;20239;-79
2024/02/15 04:13:34;;;;;;;13.70;13.00;;;7.20;99.90;;;;;;4879356;29;20321;-79
2024/02/15 04:16:01;;;;;;;13.73;12.93;;;7.20;99.90;;;;;;4882923;29;20197;-80
2024/02/15 04:18:31;;;;;;;13.23;12.53;;;7.20;99.90;;;;;;4882932;29;20735;-79
2024/02/15 04:21:00;;;;;;;13.93;13.03;;;7.30;99.90;;;;;;4885420;29;20457;-79
2024/02/15 04:23:27;;;;;;;14.13;13.23;;;7.40;99.90;;;;;;4886207;29;20213;-78
2024/02/15 04:25:54;;;;;;;14.30;13.40;;;7.40;99.90;;;;;;4880875;29;20201;-77
2024/02/15 04:28:21;;;;;;;13.97;13.17;;;7.40;99.90;;;;;;4881257;29;20237;-77
2024/02/15 04:30:48;;;;;;;13.83;13.03;;;7.40;99.90;;;;;;4881556;29;20201;-77
2024/02/15 04:33:16;;;;;;;14.20;13.30;;;7.40;99.90;;;;;;4880942;29;20225;-75
2024/02/15 04:35:43;;;;;;;13.57;12.60;;;7.40;99.90;;;;;;4876445;29;20274;-77
2024/02/15 04:38:11;;;;;;;13.97;13.17;;;7.40;99.90;;;;;;4879786;29;20228;-76
2024/02/15 04:40:39;;;;;;;13.73;12.83;;;7.40;99.90;;;;;;4880979;29;20202;-77
2024/02/15 04:43:06;;;;;;;14.40;13.50;;;7.40;99.90;;;;;;4880272;29;20210;-76
2024/02/15 04:45:33;;;;;;;14.50;13.50;;;7.40;99.90;;;;;;4879783;29;20208;-77
2024/02/15 04:48:01;;;;;;;14.00;13.10;;;7.40;99.90;;;;;;4881201;29;20217;-77
2024/02/15 04:50:29;;;;;;;14.43;13.53;;;7.40;99.90;;;;;;4880890;29;20208;-77
2024/02/15 04:52:56;;;;;;;14.47;13.57;;;7.40;99.90;;;;;;4880868;29;20246;-76
2024/02/15 04:55:26;;;;;;;14.37;13.57;;;7.40;99.90;;;;;;4880880;29;20225;-77
2024/02/15 04:57:54;;;;;;;14.50;13.67;;;7.50;99.90;;;;;;4876599;29;20232;-76
2024/02/15 05:00:25;;;;;;;14.93;14.03;;;7.50;99.90;;;;;;4882490;29;20205;-76
2024/02/15 05:02:52;;;;;;;14.80;13.87;;;7.50;99.90;;;;;;4878429;29;20228;-76
2024/02/15 05:05:21;;;;;;;14.80;13.90;;;7.60;99.90;;;;;;4882727;29;20208;-77
2024/02/15 05:07:48;;;;;;;15.20;14.30;;;7.60;99.90;;;;;;4882090;29;20229;-76
2024/02/15 05:10:16;;;;;;;15.57;14.57;;;7.60;99.90;;;;;;4882030;29;20261;-77
2024/02/15 05:12:47;;;;;;;15.63;14.63;;;7.60;99.90;;;;;;4884202;29;20698;-77
2024/02/15 05:15:17;;;;;;;14.97;14.07;;;7.60;99.90;;;;;;4875765;29;20313;-77
2024/02/15 05:17:44;;;;;;;15.33;14.33;;;7.60;99.90;;;;;;4882477;29;20232;-76
2024/02/15 05:20:13;;;;;;;15.43;14.43;;;7.60;99.90;;;;;;4884952;29;20204;-77
2024/02/15 05:22:43;;;;;;;14.60;13.80;;;7.60;99.90;;;;;;4885699;29;20209;-76
2024/02/15 05:25:12;;;;;;;15.57;14.47;;;7.50;99.90;;;;;;4883314;29;20269;-77
2024/02/15 05:27:39;;;;;;;15.80;14.60;;;7.50;99.90;;;;;;4883706;29;20244;-76
2024/02/15 05:30:08;;;;;;;15.03;14.10;;;7.50;99.90;;;;;;4884829;29;20205;-77
2024/02/15 05:32:41;;;;;;;14.70;13.80;;;7.40;99.90;;;;;;4881364;29;20223;-77
2024/02/15 05:35:09;;;;;;;14.90;14.00;;;7.40;99.90;;;;;;4876727;29;20304;-77
2024/02/15 05:37:36;;;;;;;15.53;14.60;;;7.30;99.90;;;;;;4884323;29;20224;-76
2024/02/15 05:40:03;;;;;;;15.17;14.17;;;7.30;99.90;;;;;;4885559;29;20197;-77
2024/02/15 05:42:31;;;;;;;15.60;14.40;;;7.20;99.90;;;;;;4878872;29;20587;-77
2024/02/15 05:45:32;;;;;;;15.77;14.73;;;7.20;99.90;;;;;;4885506;29;20196;-77
2024/02/15 05:48:00;;;;;;;15.17;14.27;;;7.20;99.90;;;;;;4883290;29;20319;-76
2024/02/15 05:50:29;;;;;;;15.30;14.40;;;7.10;99.90;;;;;;4885150;29;20225;-76
2024/02/15 05:52:58;;;;;;;16.50;15.30;;;7.10;99.90;;;;;;4884935;29;20201;-76
2024/02/15 05:55:26;;;;;;;15.93;14.73;;;7.00;99.90;;;;;;4886158;29;20705;-76
2024/02/15 05:57:54;;;;;;;16.00;14.90;;;7.00;99.90;;;;;;4887595;29;20221;-76
2024/02/15 06:00:22;;;;;;;15.40;14.40;;;7.00;99.90;;;;;;4885185;29;20292;-77
2024/02/15 06:02:50;;;;;;;15.60;14.60;;;7.00;99.90;;;;;;4887906;29;20201;-78
2024/02/15 06:05:17;;;;;;;15.63;14.57;;;7.00;99.90;;;;;;4891199;29;20656;-78
2024/02/15 06:07:45;;;;;;;16.10;15.00;;;6.90;99.90;;;;;;4886603;29;20269;-77
2024/02/15 06:10:13;;;;;;;15.80;14.70;;;6.80;99.90;;;;;;4883771;29;20227;-77
2024/02/15 06:12:40;;;;;;;16.57;15.37;;;6.60;99.90;;;;;;4885489;29;20720;-76
2024/02/15 06:15:14;;;;;;;16.07;14.97;;;6.60;99.90;;;;;;4883097;29;20229;-76
2024/02/15 06:17:44;;;;;;;16.60;15.50;;;6.50;99.90;;;;;;4883064;29;20227;-77
2024/02/15 06:20:15;;;;;;;16.77;15.50;;;6.50;99.90;;;;;;4886270;29;20231;-76
2024/02/15 06:22:42;;;;;;;17.07;15.80;;;6.40;99.90;;;;;;4884447;29;20243;-77
2024/02/15 06:25:09;;;;;;;16.23;15.13;;;6.40;99.90;;;;;;4884383;29;20204;-77
2024/02/15 06:27:40;;;;;;;16.63;15.43;;;6.40;99.90;;;;;;4883249;29;20238;-76
2024/02/15 06:41:08;;;;;;;15.90;14.87;;;6.30;99.90;;;;;;4878892;29;20562;-76
2024/02/15 06:43:35;;;;;;;16.17;14.97;;;6.30;99.90;;;;;;4885926;29;20243;-76
2024/02/15 06:46:02;;;;;;;15.33;14.43;;;6.30;99.90;;;;;;4883273;29;20220;-76
2024/02/15 06:48:31;;;;;;;16.03;15.00;;;6.20;99.90;;;;;;4880137;29;20280;-76
2024/02/15 06:50:58;;;;;;;15.73;14.63;;;6.20;99.90;;;;;;4885290;29;20204;-77
2024/02/15 06:53:24;;;;;;;15.87;14.90;;;6.20;99.90;;;;;;4883408;29;20208;-77
2024/02/15 06:55:52;;;;;;;15.87;14.87;;;6.20;99.90;;;;;;4876371;29;20232;-76
2024/02/15 06:58:20;;;;;;;15.37;14.37;;;6.20;99.90;;;;;;4881540;29;20716;-76
2024/02/15 07:00:50;;;;;;;16.10;15.00;;;6.30;99.90;;;;;;4876459;29;20212;-77
2024/02/15 07:03:17;;;;;;;16.87;15.57;;;6.30;99.90;;;;;;4880825;29;20687;-76
2024/02/15 07:05:45;;;;;;;16.03;14.97;;;6.40;99.90;;;;;;4882118;29;20210;-76
2024/02/15 07:08:13;;;;;;;15.70;14.60;;;6.50;99.90;;;;;;4873226;29;20236;-76
2024/02/15 07:10:40;;;;;;;16.17;15.13;;;6.50;99.90;;;;;;4878446;29;20264;-76
2024/02/15 07:13:07;;;;;;;16.10;15.10;;;6.60;99.90;;;;;;4882153;29;20277;-77
2024/02/15 07:15:37;;;;;;;15.80;14.73;;;6.80;99.90;;;;;;4877677;29;20293;-77
2024/02/15 07:18:06;;;;;;;15.20;14.30;;;6.90;99.90;;;;;;4875506;29;20229;-77
2024/02/15 07:20:32;;;;;;;15.10;14.20;;;7.00;99.90;;;;;;4881144;29;20232;-76
2024/02/15 07:23:01;;;;;;;15.10;14.10;;;7.20;99.90;;;;;;4882451;29;20217;-77
2024/02/15 07:25:27;;;;;;;15.13;14.13;;;7.30;99.90;;;;;;4879623;29;20237;-77
2024/02/15 07:27:54;;;;;;;14.93;13.93;;;7.50;99.90;;;;;;4899499;29;20233;-77
2024/02/15 07:30:22;;;;;;;15.33;14.17;;;7.70;99.90;;;;;;4885022;29;20329;-77
2024/02/15 07:32:49;;;;;;;14.80;13.90;;;7.90;99.90;;;;;;4887204;29;20205;-77
2024/02/15 07:35:17;;;;;;;15.20;14.10;;;8.00;99.90;;;;;;4887360;29;20249;-77
2024/02/15 07:37:55;;;;;;;14.67;13.77;;;8.20;99.90;;;;;;4885915;29;20221;-77
2024/02/15 07:40:27;;;;;;;15.07;13.97;;;8.20;99.90;;;;;;4886543;29;20209;-76
2024/02/15 07:42:55;;;;;;;14.47;13.47;;;8.40;99.90;;;;;;4886494;29;20249;-77
2024/02/15 07:45:22;;;;;;;13.87;12.87;;;8.50;99.90;;;;;;4883247;29;20239;-77
2024/02/15 07:47:49;;;;;;;13.97;12.97;;;8.70;99.90;;;;;;4888557;29;20615;-77
2024/02/15 07:50:19;;;;;;;8.03;7.43;;;9.10;99.90;;;;;;4888097;29;20243;-77
2024/02/15 07:52:47;;;;;;;9.20;8.50;;;9.40;99.90;;;;;;4889447;29;20205;-77
2024/02/15 07:55:14;;;;;;;5.37;4.97;;;9.70;99.90;;;;;;4884714;29;20233;-77
2024/02/15 07:57:43;;;;;;;6.83;4.87;;;10.10;99.90;;;;;;4882066;29;20225;-77
2024/02/15 08:00:11;;;;;;;9.07;5.33;;;10.40;99.90;;;;;;4883978;29;20203;-77
2024/02/15 08:02:41;;;;;;;8.67;7.97;;;10.70;99.90;;;;;;4897684;29;20203;-77
2024/02/15 08:05:10;;;;;;;14.10;13.13;;;11.00;99.90;;;;;;4880761;29;20220;-77
2024/02/15 08:07:38;;;;;;;5.50;4.77;;;11.50;99.90;;;;;;4887703;29;20239;-77
2024/02/15 08:10:12;;;;;;;4.73;4.30;;;11.70;99.90;;;;;;4886828;29;20361;-77
2024/02/15 08:12:40;;;;;;;6.40;4.70;;;11.80;99.90;;;;;;4885030;29;20219;-77
2024/02/15 08:15:11;;;;;;;10.30;9.60;;;11.90;99.90;;;;;;4889855;29;20227;-78
2024/02/15 08:17:40;;;;;;;14.37;13.27;;;11.80;99.90;;;;;;4888950;29;20221;-77
2024/02/15 08:20:09;;;;;;;15.20;13.90;;;12.10;99.90;;;;;;4884778;29;20725;-77
2024/02/15 08:22:38;;;;;;;14.13;13.00;;;12.50;99.90;;;;;;4890308;29;20692;-78
2024/02/15 08:25:10;;;;;;;11.33;10.43;;;12.90;99.90;;;;;;4891452;29;20238;-77
2024/02/15 08:27:42;;;;;;;10.20;9.47;;;13.30;99.90;;;;;;4889060;29;20235;-77
2024/02/15 08:30:12;;;;;;;8.90;8.17;;;13.50;99.90;;;;;;4890517;29;20221;-77
2024/02/15 08:32:41;;;;;;;10.70;9.80;;;13.60;99.90;;;;;;4889050;29;20236;-79
2024/02/15 08:35:09;;;;;;;7.10;6.50;;;13.90;99.90;;;;;;4878868;29;20220;-76
2024/02/15 08:37:37;;;;;;;9.73;8.73;;;14.30;99.90;;;;;;4879609;29;20218;-76
2024/02/15 08:40:10;;;;;;;10.93;10.13;;;14.40;99.90;;;;;;4878753;29;20577;-77
2024/02/15 08:42:38;;;;;;;7.07;6.30;;;14.40;99.90;;;;;;4880808;29;20212;-77
2024/02/15 08:45:08;;;;;;;9.37;8.67;;;14.30;99.90;;;;;;4882745;29;20250;-76
2024/02/15 08:47:38;;;;;;;9.17;8.50;;;14.40;99.90;;;;;;4880254;29;20223;-78
2024/02/15 08:50:05;;;;;;;9.27;8.67;;;14.40;99.90;;;;;;4879733;29;20628;-79
2024/02/15 08:52:32;;;;;;;9.87;9.17;;;14.40;99.90;;;;;;4872892;29;20686;-78
2024/02/15 08:55:00;;;;;;;11.97;11.00;;;14.20;99.90;;;;;;4877455;29;20288;-78
2024/02/15 08:57:27;;;;;;;12.07;11.27;;;14.10;99.90;;;;;;4876206;29;20208;-78
2024/02/15 08:59:54;;;;;;;11.13;10.33;;;14.00;99.90;;;;;;4880640;29;20205;-78
2024/02/15 09:02:21;;;;;;;12.27;11.37;;;14.00;99.90;;;;;;4877614;29;20217;-79
2024/02/15 09:04:49;;;;;;;12.83;11.93;;;14.20;99.90;;;;;;4880477;29;20469;-78
2024/02/15 09:07:16;;;;;;;11.77;10.97;;;14.20;99.90;;;;;;4875482;29;20846;-78
2024/02/15 09:09:43;;;;;;;11.70;11.00;;;14.30;99.90;;;;;;4880458;29;20561;-78
2024/02/15 09:12:10;;;;;;;11.93;11.03;;;14.40;99.90;;;;;;4879655;29;20213;-78
2024/02/15 09:14:37;;;;;;;11.93;10.93;;;14.50;99.90;;;;;;4874511;29;20284;-78
2024/02/15 09:17:07;;;;;;;11.90;10.93;;;14.70;99.90;;;;;;4877433;29;20235;-78
2024/02/15 09:19:34;;;;;;;12.00;11.10;;;14.90;99.90;;;;;;4879383;29;20291;-76
2024/02/15 09:22:04;;;;;;;12.10;11.20;;;15.10;99.90;;;;;;4872013;29;20204;-79
2024/02/15 09:24:32;;;;;;;10.07;9.27;;;15.30;99.90;;;;;;4875608;29;20637;-77
2024/02/15 09:27:00;;;;;;;10.73;9.70;;;15.40;99.90;;;;;;4871965;29;20205;-78
2024/02/15 09:29:29;;;;;;;11.23;10.33;;;15.60;99.90;;;;;;4884784;23;20235;-77
2024/02/15 09:31:57;;;;;;;11.17;10.37;;;15.70;99.90;;;;;;4857009;29;20280;-77
2024/02/15 09:34:24;;;;;;;9.27;8.57;;;15.90;99.90;;;;;;4857795;29;20214;-77
2024/02/15 09:36:51;;;;;;;8.90;8.20;;;15.90;99.90;;;;;;4851638;29;20218;-76
2024/02/15 09:39:19;;;;;;;6.50;6.00;;;16.00;99.90;;;;;;4859494;29;20225;-76
2024/02/15 09:41:50;;;;;;;9.17;8.47;;;16.10;99.90;;;;;;4859355;29;20750;-77
2024/02/15 09:44:17;;;;;;;8.60;7.90;;;16.10;99.90;;;;;;4859245;29;20700;-77
2024/02/15 09:46:47;;;;;;;11.70;10.70;;;16.10;99.90;;;;;;4860935;29;20202;-79
2024/02/15 09:52:20;;;;;;;10.80;10.00;;;16.00;99.90;;;;;;5122427;23;20236;-80
2024/02/15 09:54:52;;;;;;;10.47;9.67;;;16.10;99.90;;;;;;4858793;29;20205;-79
2024/02/15 09:57:23;;;;;;;11.30;10.47;;;16.00;99.90;;;;;;4864200;29;20206;-79
2024/02/15 09:59:54;;;;;;;10.20;9.50;;;16.00;99.90;;;;;;4844255;29;20228;-80
2024/02/15 10:09:29;;;;;;;10.80;10.00;;;15.80;99.90;;;;;;5082024;23;20251;-78
2024/02/15 10:12:00;;;;;;;10.73;9.93;;;15.70;99.90;;;;;;4861114;29;20291;-79
2024/02/15 10:14:29;;;;;;;11.10;10.20;;;15.60;99.90;;;;;;4861950;29;20202;-79
2024/02/15 10:16:57;;;;;;;10.80;10.00;;;15.60;99.90;;;;;;4861734;29;20228;-79
2024/02/15 10:19:25;;;;;;;10.90;10.10;;;15.40;99.90;;;;;;4858296;29;20253;-78
2024/02/15 10:21:56;;;;;;;11.67;10.77;;;15.40;99.90;;;;;;4857709;29;20210;-78
2024/02/15 10:24:24;;;;;;;10.57;9.87;;;15.30;99.90;;;;;;4861986;29;20231;-78
2024/02/15 10:26:51;;;;;;;10.57;9.77;;;15.30;99.90;;;;;;4861894;29;20262;-77
2024/02/15 10:29:21;;;;;;;10.53;9.87;;;15.30;99.90;;;;;;4861756;29;20305;-79
2024/02/15 10:31:54;;;;;;;10.80;10.10;;;15.30;99.90;;;;;;4860275;29;20213;-79
2024/02/15 10:34:22;;;;;;;10.97;10.27;;;15.30;99.90;;;;;;4861338;29;20267;-78
2024/02/15 10:36:49;;;;;;;10.73;9.93;;;15.30;99.90;;;;;;4860275;29;20264;-78
2024/02/15 10:39:19;;;;;;;10.33;9.63;;;15.30;99.90;;;;;;4860345;29;20249;-78
2024/02/15 10:41:51;;;;;;;10.57;9.77;;;15.30;99.90;;;;;;4861278;29;20585;-78
2024/02/15 10:44:20;;;;;;;10.67;9.97;;;15.20;99.90;;;;;;4865373;29;20213;-78
2024/02/15 10:46:50;;;;;;;10.97;10.20;;;15.30;99.90;;;;;;4865168;29;20207;-79
2024/02/15 10:49:18;;;;;;;10.00;9.37;;;15.10;99.90;;;;;;4862921;29;20235;-78
2024/02/15 10:51:49;;;;;;;10.00;9.30;;;15.10;99.90;;;;;;4864243;29;20656;-77
2024/02/15 10:54:26;;;;;;;9.77;9.17;;;15.00;99.90;;;;;;4864972;29;20205;-77
2024/02/15 10:56:59;;;;;;;10.80;9.80;;;14.90;99.90;;;;;;4863208;29;20225;-78
2024/02/15 11:10:44;;;;;;;10.67;9.77;;;15.20;99.90;;;;;;5238646;23;20237;-78
2024/02/15 11:13:29;;;;;;;11.20;10.30;;;15.20;99.90;;;;;;4858684;29;20211;-79
2024/02/15 11:16:07;;;;;;;10.80;10.10;;;15.30;99.90;;;;;;4867841;29;20252;-79
2024/02/15 11:19:21;;;;;;;10.40;9.80;;;15.30;99.90;;;;;;4852872;29;20221;-79
2024/02/15 11:55:48;;;;;;;9.47;8.87;;;15.40;99.90;;;;;;4839040;29;20594;-78
2024/02/15 11:58:21;;;;;;;9.70;9.10;;;15.50;99.90;;;;;;4838721;29;20233;-77
2024/02/15 12:20:13;;;;;;;10.17;9.47;;;16.10;99.90;;;;;;4858724;29;20229;-79
2024/02/15 12:22:43;;;;;;;12.10;11.30;;;16.10;99.90;;;;;;4840773;29;20202;-79
2024/02/15 12:25:16;;;;;;;10.77;9.97;;;16.10;99.90;;;;;;4841917;29;20302;-79
2024/02/15 12:27:46;;;;;;;3.97;3.10;;;16.10;99.90;;;;;;4856107;29;20206;-78
2024/02/15 12:30:15;;;;;;;3.17;2.87;;;16.10;99.90;;;;;;4856153;29;20229;-79
2024/02/15 12:32:42;;;;;;;11.87;10.97;;;16.20;99.90;;;;;;4842213;29;20205;-80
2024/02/15 12:35:16;;;;;;;9.73;8.93;;;16.10;99.90;;;;;;4840380;29;20221;-78
2024/02/15 12:37:43;;;;;;;9.57;8.77;;;16.20;99.90;;;;;;4849923;29;20202;-79
2024/02/15 12:40:15;;;;;;;9.57;8.87;;;16.30;99.90;;;;;;4842464;29;20513;-79
2024/02/15 12:42:45;;;;;;;9.80;9.20;;;16.20;99.90;;;;;;4845051;29;20250;-79
2024/02/15 12:45:20;;;;;;;9.60;8.90;;;16.30;99.90;;;;;;4878626;29;20212;-80
2024/02/15 12:47:49;;;;;;;9.60;9.00;;;16.40;99.90;;;;;;4879580;29;20198;-80
2024/02/15 12:50:17;;;;;;;8.30;7.73;;;16.40;99.90;;;;;;4878928;29;20209;-80
2024/02/15 12:52:47;;;;;;;9.10;8.53;;;16.50;99.90;;;;;;4878454;29;20206;-81
2024/02/15 12:55:19;;;;;;;9.70;9.00;;;16.60;99.90;;;;;;4844586;29;20220;-79
2024/02/15 12:57:51;;;;;;;9.80;9.00;;;16.60;99.90;;;;;;4844655;29;20596;-79
2024/02/15 13:00:20;;;;;;;9.93;9.33;;;16.60;99.90;;;;;;4851057;29;20206;-79
2024/02/15 13:02:48;;;;;;;9.77;9.17;;;16.70;99.90;;;;;;4844546;29;20214;-79
2024/02/15 13:05:18;;;;;;;9.93;9.23;;;16.70;99.90;;;;;;4857209;29;20210;-76
2024/02/15 13:07:45;;;;;;;10.50;9.80;;;16.70;99.90;;;;;;4839428;29;20640;-78
2024/02/15 13:10:14;;;;;;;10.23;9.43;;;16.70;99.90;;;;;;4855017;29;20218;-77
2024/02/15 13:12:43;;;;;;;9.53;8.93;;;16.80;99.90;;;;;;4855962;29;20272;-80
2024/02/15 13:15:14;;;;;;;9.57;8.93;;;16.80;99.90;;;;;;4843834;29;20564;-80
2024/02/15 13:17:44;;;;;;;10.30;9.60;;;16.80;99.90;;;;;;4842416;29;20242;-80
2024/02/15 13:20:13;;;;;;;9.77;9.10;;;16.70;99.90;;;;;;4843629;29;20199;-78
2024/02/15 13:22:40;;;;;;;10.00;9.20;;;16.80;99.90;;;;;;4833391;29;20207;-78
2024/02/15 13:25:08;;;;;;;9.67;9.00;;;16.80;99.90;;;;;;4840649;29;20210;-77
2024/02/15 13:27:36;;;;;;;9.27;8.67;;;16.80;99.90;;;;;;4854549;29;20233;-77
2024/02/15 13:30:03;;;;;;;5.17;3.17;;;16.90;99.90;;;;;;4841024;29;20676;-78
2024/02/15 13:32:32;;;;;;;3.47;3.10;;;16.80;99.90;;;;;;4855034;29;20209;-77
2024/02/15 13:35:07;;;;;;;5.00;2.93;;;16.80;99.90;;;;;;4855621;29;20234;-77
2024/02/15 13:37:34;;;;;;;5.23;2.77;;;16.90;99.90;;;;;;4854428;29;20901;-78
2024/02/15 13:40:01;;;;;;;3.67;3.00;;;16.90;99.90;;;;;;4854429;29;20290;-76
2024/02/15 13:42:28;;;;;;;3.00;2.70;;;16.90;99.90;;;;;;4840316;29;20213;-76
2024/02/15 13:44:55;;;;;;;4.60;2.63;;;16.90;99.90;;;;;;4840490;29;20678;-78
2024/02/15 13:47:22;;;;;;;3.33;2.80;;;16.90;99.90;;;;;;4840389;29;20194;-77
2024/02/15 13:49:50;;;;;;;3.43;2.83;;;16.90;99.90;;;;;;4837635;29;20303;-77
2024/02/15 13:52:17;;;;;;;3.03;2.73;;;16.90;99.90;;;;;;4842616;29;20229;-77
2024/02/15 13:54:44;;;;;;;2.93;2.63;;;16.90;99.90;;;;;;4841949;29;20604;-76
2024/02/15 13:57:14;;;;;;;3.27;2.47;;;17.00;99.90;;;;;;4840981;29;20219;-76
2024/02/15 13:59:40;;;;;;;2.70;2.50;;;17.00;99.90;;;;;;4837110;29;20228;-76
2024/02/15 14:02:08;;;;;;;3.40;2.53;;;17.00;99.90;;;;;;4840454;29;20282;-76
2024/02/15 14:04:35;;;;;;;3.00;2.60;;;17.10;99.90;;;;;;4840096;29;20222;-76
2024/02/15 14:07:03;;;;;;;2.73;2.50;;;17.10;99.90;;;;;;4849269;29;20228;-76
2024/02/15 14:09:30;;;;;;;2.90;2.70;;;17.00;99.90;;;;;;4851736;29;20255;-76
2024/02/15 14:11:57;;;;;;;4.00;3.70;;;16.90;99.90;;;;;;4840900;29;20622;-76
2024/02/15 14:14:25;;;;;;;7.70;7.10;;;16.90;99.90;;;;;;4840540;29;20279;-76
2024/02/15 14:16:55;;;;;;;8.17;7.57;;;16.90;99.90;;;;;;4854676;29;20287;-76
2024/02/15 14:19:26;;;;;;;10.23;9.50;;;16.80;99.90;;;;;;4839961;29;20327;-76
2024/02/15 14:21:58;;;;;;;4.30;3.90;;;16.80;99.90;;;;;;4858410;29;20640;-77
2024/02/15 14:24:28;;;;;;;7.63;7.13;;;16.80;99.90;;;;;;4843055;29;20211;-77
2024/02/15 14:26:58;;;;;;;9.50;8.90;;;16.80;99.90;;;;;;4850505;29;20286;-76
2024/02/15 14:29:32;;;;;;;9.57;8.97;;;16.80;99.90;;;;;;4842381;29;20228;-76
2024/02/15 14:34:44;;;;;;;9.90;9.20;;;16.80;99.90;;;;;;4852192;29;20200;-77
2024/02/15 14:37:16;;;;;;;3.47;3.17;;;16.90;99.90;;;;;;4857955;29;20222;-77
2024/02/15 14:45:11;;;;;;;8.27;7.73;;;16.90;99.90;;;;;;4862517;29;20230;-79
2024/02/15 14:56:19;;;;;;;9.70;9.10;;;16.70;99.90;;;;;;4717219;30;20221;-78
2024/02/15 14:58:52;;;;;;;10.17;9.57;;;16.80;99.90;;;;;;4726786;30;20233;-79
2024/02/15 15:01:42;;;;;;;9.40;8.80;;;16.70;99.90;;;;;;4813821;29;20214;-79
2024/02/15 15:04:11;;;;;;;10.13;9.43;;;16.70;99.90;;;;;;4865118;29;20213;-78
2024/02/15 15:14:52;;;;;;;9.50;8.90;;;16.60;99.90;;;;;;4858211;29;20213;-79
2024/02/15 15:17:20;;;;;;;9.80;9.10;;;16.60;99.90;;;;;;4862187;29;20282;-79
2024/02/15 15:19:47;;;;;;;10.37;9.60;;;16.60;99.90;;;;;;4862339;29;20226;-79
2024/02/15 15:22:14;;;;;;;10.10;9.50;;;16.50;99.90;;;;;;4861834;29;20757;-79
2024/02/15 15:24:41;;;;;;;10.23;9.63;;;16.50;99.90;;;;;;4863055;29;20209;-79
2024/02/15 15:27:08;;;;;;;10.70;9.77;;;16.40;99.90;;;;;;4862687;29;20215;-78
2024/02/15 15:29:35;;;;;;;10.03;9.33;;;16.30;99.90;;;;;;4883567;23;20238;-78
2024/02/15 15:32:04;;;;;;;10.00;9.40;;;16.20;99.90;;;;;;4861704;29;20208;-78
2024/02/15 15:34:33;;;;;;;9.47;8.87;;;16.20;99.90;;;;;;4862592;29;20750;-77
2024/02/15 15:36:59;;;;;;;9.70;9.00;;;16.10;99.90;;;;;;4861786;29;20229;-81
2024/02/15 15:39:28;;;;;;;10.30;9.70;;;16.00;99.90;;;;;;4861099;29;20301;-80
2024/02/15 15:41:55;;;;;;;9.70;9.10;;;15.90;99.90;;;;;;4862066;29;20206;-80
2024/02/15 15:44:27;;;;;;;10.30;9.40;;;15.80;99.90;;;;;;4861111;29;20213;-79
2024/02/15 15:46:53;;;;;;;9.53;9.00;;;15.70;99.90;;;;;;4861709;29;20206;-78
2024/02/15 15:49:20;;;;;;;10.07;9.47;;;15.70;99.90;;;;;;4860165;29;20254;-79
2024/02/15 15:51:49;;;;;;;9.90;9.30;;;15.60;99.90;;;;;;4861944;29;20569;-80
2024/02/15 15:54:17;;;;;;;9.70;9.10;;;15.50;99.90;;;;;;4861737;29;20258;-79
2024/02/15 15:56:44;;;;;;;10.40;9.70;;;15.40;99.90;;;;;;4861416;29;20225;-81
2024/02/15 15:59:13;;;;;;;9.43;8.93;;;15.30;99.90;;;;;;4861685;29;20259;-77
2024/02/15 16:01:41;;;;;;;9.30;8.70;;;15.20;99.90;;;;;;4860605;29;20206;-78
2024/02/15 16:04:08;;;;;;;9.60;9.00;;;15.10;99.90;;;;;;4857610;29;20221;-78
2024/02/15 16:06:34;;;;;;;9.43;8.93;;;15.00;99.90;;;;;;4860948;29;20203;-78
2024/02/15 16:09:04;;;;;;;9.80;9.20;;;15.00;99.90;;;;;;4862100;29;20290;-78
2024/02/15 16:11:30;;;;;;;9.43;8.83;;;14.90;99.90;;;;;;4860393;29;20219;-78
2024/02/15 16:13:57;;;;;;;9.77;9.17;;;14.80;99.90;;;;;;4860446;29;20656;-78
2024/02/15 16:16:24;;;;;;;10.00;9.30;;;14.60;99.90;;;;;;4860922;29;20213;-78
2024/02/15 16:18:51;;;;;;;10.20;9.60;;;14.60;99.90;;;;;;4859885;29;20233;-77
2024/02/15 16:21:18;;;;;;;10.27;9.50;;;14.40;99.90;;;;;;4860472;29;20207;-78
2024/02/15 16:23:45;;;;;;;10.57;9.87;;;14.40;99.90;;;;;;4860803;29;20210;-78
2024/02/15 16:26:13;;;;;;;10.47;9.77;;;14.30;99.90;;;;;;4860380;29;20215;-77
2024/02/15 16:28:41;;;;;;;10.43;9.53;;;14.20;99.90;;;;;;4859839;29;20602;-77
2024/02/15 16:31:08;;;;;;;10.43;9.70;;;14.20;99.90;;;;;;4859799;29;20210;-78
2024/02/15 16:33:35;;;;;;;10.90;10.20;;;14.00;99.90;;;;;;4861414;29;20367;-76
2024/02/15 16:36:03;;;;;;;10.57;9.97;;;14.00;99.90;;;;;;4859834;29;20206;-80
2024/02/15 16:38:29;;;;;;;10.40;9.70;;;13.90;99.90;;;;;;4859205;29;20241;-79
2024/02/15 16:40:56;;;;;;;11.00;10.30;;;13.80;99.90;;;;;;4860620;29;20220;-77
2024/02/15 16:43:27;;;;;;;10.10;9.43;;;13.70;99.90;;;;;;4859178;29;20206;-77
2024/02/15 16:45:54;;;;;;;11.03;10.33;;;13.70;99.90;;;;;;4861448;29;20719;-79
2024/02/15 16:48:21;;;;;;;10.97;10.20;;;13.60;99.90;;;;;;4850766;29;20229;-78
2024/02/15 16:50:48;;;;;;;10.83;10.07;;;13.50;99.90;;;;;;4853857;29;20236;-79
2024/02/15 16:53:16;;;;;;;10.10;9.50;;;13.50;99.90;;;;;;4855529;29;20218;-78
2024/02/15 16:55:43;;;;;;;10.13;9.43;;;13.60;99.90;;;;;;4856114;29;20204;-79
2024/02/15 16:58:10;;;;;;;10.40;9.70;;;13.50;99.90;;;;;;4856714;29;20257;-78
2024/02/15 17:00:39;;;;;;;9.70;9.10;;;13.50;99.90;;;;;;4855929;29;20233;-79
2024/02/15 17:03:06;;;;;;;9.80;9.10;;;13.50;99.90;;;;;;4858781;29;20598;-79
2024/02/15 17:05:35;;;;;;;9.80;9.20;;;13.40;99.90;;;;;;4858708;29;20297;-78
2024/02/15 17:08:02;;;;;;;10.00;9.30;;;13.40;99.90;;;;;;4863936;29;20206;-79
2024/02/15 17:10:29;;;;;;;10.47;9.77;;;13.40;99.90;;;;;;4858783;29;20219;-79
2024/02/15 17:12:57;;;;;;;10.33;9.63;;;13.40;99.90;;;;;;4873963;29;20255;-78
2024/02/15 17:15:25;;;;;;;10.03;9.33;;;13.30;99.90;;;;;;4855972;29;20798;-78
2024/02/15 17:17:54;;;;;;;10.70;9.90;;;13.30;99.90;;;;;;4860408;29;20223;-77
2024/02/15 17:20:22;;;;;;;11.37;10.47;;;13.20;99.90;;;;;;4858308;29;20282;-77
2024/02/15 17:22:50;;;;;;;10.80;10.00;;;13.20;99.90;;;;;;4858154;29;20205;-77
2024/02/15 17:25:17;;;;;;;11.00;10.20;;;13.20;99.90;;;;;;4859753;29;20225;-79
2024/02/15 17:27:44;;;;;;;10.13;9.43;;;13.10;99.90;;;;;;4861562;29;20584;-77
2024/02/15 17:30:13;;;;;;;10.80;10.03;;;13.10;99.90;;;;;;4862437;29;20294;-77
2024/02/15 17:32:41;;;;;;;11.57;10.57;;;13.10;99.90;;;;;;4861637;29;20641;-81
2024/02/15 17:35:13;;;;;;;10.90;10.10;;;13.10;99.90;;;;;;4858399;29;20287;-78
2024/02/15 17:37:40;;;;;;;10.43;9.63;;;13.10;99.90;;;;;;4859836;29;20241;-78
2024/02/15 17:40:11;;;;;;;10.43;9.73;;;13.10;99.90;;;;;;4860401;29;20236;-81
2024/02/15 17:42:38;;;;;;;10.57;9.87;;;13.10;99.90;;;;;;4860050;29;20202;-77
2024/02/15 17:45:09;;;;;;;9.93;9.33;;;13.20;99.90;;;;;;4859544;29;20202;-80
2024/02/15 17:47:39;;;;;;;10.13;9.43;;;13.10;99.90;;;;;;4860805;29;20237;-78
2024/02/15 17:50:13;;;;;;;9.77;9.17;;;13.10;99.90;;;;;;4854001;29;20242;-78
2024/02/15 17:52:41;;;;;;;10.10;9.30;;;13.10;99.90;;;;;;4863446;29;20228;-78
2024/02/15 17:55:08;;;;;;;10.20;9.50;;;13.00;99.90;;;;;;4866499;29;20207;-79
2024/02/15 18:00:30;;;;;;;9.83;9.23;;;13.00;99.90;;;;;;4847738;29;20225;-78
2024/02/15 18:03:25;;;;;;;10.20;9.50;;;13.00;99.90;;;;;;4863881;29;20202;-79
2024/02/15 18:05:54;;;;;;;10.43;9.73;;;13.00;99.90;;;;;;4859531;29;20308;-76